Sibenik, Croatia
Current Conditions -  °F | °C
As of 3:30 AM on Saturday 25 Oct 2014 (Local Time) from LDSP Reporting Station
Clear Clear  
Wind Chill: 55°   Ceiling: Unl
Heat Index: 55°   Visibility: 6mi
Dew Point: 34°   Wind: 12mph
Humidity: 44%   Direction: 40°NE
Pressure: 29.94"   Gusts: NA
Location:  43.74°N, 15.89°E
Report Text: LDSP 250230Z 04010KT 350V100 CAVOK 13/01 Q1014 NOSIG
Loading
Personal Weather Stations






























Interactive Weather Map
Tropical Storm Tracking
New forecast layout! Learn more

10-Day Weather Forecast

Advertisements
Track Severe Weather on mobile